sensor_id;sensor_type;location;lat;lon;timestamp;pressure;altitude;pressure_sealevel;temperature;humidity
10460;BME280;54412;51.206;6.888;2023-03-01T00:01:22;102263.13;;;3.54;53.69
10460;BME280;54412;51.206;6.888;2023-03-01T00:03:48;102270.03;;;3.49;54.12
10460;BME280;54412;51.206;6.888;2023-03-01T00:06:14;102267.56;;;3.70;53.53
10460;BME280;54412;51.206;6.888;2023-03-01T00:08:40;102271.00;;;3.71;53.49
10460;BME280;54412;51.206;6.888;2023-03-01T00:14:03;102257.97;;;3.68;53.50
10460;BME280;54412;51.206;6.888;2023-03-01T00:16:43;102258.75;;;3.53;53.47
10460;BME280;54412;51.206;6.888;2023-03-01T00:19:20;102266.53;;;3.41;53.49
10460;BME280;54412;51.206;6.888;2023-03-01T00:21:47;102266.59;;;3.55;53.58
10460;BME280;54412;51.206;6.888;2023-03-01T00:24:14;102263.97;;;3.47;54.00
10460;BME280;54412;51.206;6.888;2023-03-01T00:26:40;102263.09;;;3.51;53.92
10460;BME280;54412;51.206;6.888;2023-03-01T00:29:06;102258.66;;;3.35;54.33
10460;BME280;54412;51.206;6.888;2023-03-01T00:31:33;102257.78;;;3.33;54.16
10460;BME280;54412;51.206;6.888;2023-03-01T00:34:03;102262.16;;;3.39;54.26
10460;BME280;54412;51.206;6.888;2023-03-01T00:36:34;102256.84;;;3.17;54.30
10460;BME280;54412;51.206;6.888;2023-03-01T00:39:01;102253.41;;;3.28;54.58
10460;BME280;54412;51.206;6.888;2023-03-01T00:41:27;102252.66;;;3.53;53.70
10460;BME280;54412;51.206;6.888;2023-03-01T00:43:53;102252.59;;;3.36;54.01
10460;BME280;54412;51.206;6.888;2023-03-01T00:46:23;102239.53;;;3.33;53.96
10460;BME280;54412;51.206;6.888;2023-03-01T00:48:50;102242.22;;;3.51;53.54
10460;BME280;54412;51.206;6.888;2023-03-01T00:51:25;102243.06;;;3.40;53.97
10460;BME280;54412;51.206;6.888;2023-03-01T00:53:57;102231.78;;;3.48;53.55
10460;BME280;54412;51.206;6.888;2023-03-01T00:56:24;102236.78;;;3.06;54.37
10460;BME280;54412;51.206;6.888;2023-03-01T00:58:50;102231.59;;;3.13;54.80
10460;BME280;54412;51.206;6.888;2023-03-01T01:01:23;102233.41;;;3.24;54.79
10460;BME280;54412;51.206;6.888;2023-03-01T01:03:56;102224.78;;;3.35;54.04
10460;BME280;54412;51.206;6.888;2023-03-01T01:06:29;102234.31;;;3.32;54.47
10460;BME280;54412;51.206;6.888;2023-03-01T01:08:56;102237.00;;;3.51;53.94
10460;BME280;54412;51.206;6.888;2023-03-01T01:11:24;102231.56;;;3.06;54.86
10460;BME280;54412;51.206;6.888;2023-03-01T01:13:51;102228.97;;;3.07;55.02
10460;BME280;54412;51.206;6.888;2023-03-01T01:16:18;102225.31;;;2.78;55.37
10460;BME280;54412;51.206;6.888;2023-03-01T01:18:45;102207.13;;;2.86;55.71
10460;BME280;54412;51.206;6.888;2023-03-01T01:21:15;102210.59;;;2.85;55.90
10460;BME280;54412;51.206;6.888;2023-03-01T01:23:43;102218.50;;;3.03;55.19
10460;BME280;54412;51.206;6.888;2023-03-01T01:26:17;102209.78;;;2.95;54.83
10460;BME280;54412;51.206;6.888;2023-03-01T01:28:44;102203.59;;;2.76;55.61
10460;BME280;54412;51.206;6.888;2023-03-01T01:31:10;102193.31;;;3.02;54.87
10460;BME280;54412;51.206;6.888;2023-03-01T01:33:36;102192.50;;;3.15;54.87
10460;BME280;54412;51.206;6.888;2023-03-01T01:36:06;102189.84;;;3.06;54.74
10460;BME280;54412;51.206;6.888;2023-03-01T01:38:33;102189.00;;;3.07;54.75
10460;BME280;54412;51.206;6.888;2023-03-01T01:40:59;102191.56;;;2.98;55.06
10460;BME280;54412;51.206;6.888;2023-03-01T01:43:31;102189.00;;;3.04;54.75
10460;BME280;54412;51.206;6.888;2023-03-01T01:46:30;102179.31;;;2.88;55.22
10460;BME280;54412;51.206;6.888;2023-03-01T01:49:07;102174.09;;;2.83;55.28
10460;BME280;54412;51.206;6.888;2023-03-01T01:51:41;102163.72;;;2.94;55.13
10460;BME280;54412;51.206;6.888;2023-03-01T01:54:18;102163.78;;;3.00;54.69
10460;BME280;54412;51.206;6.888;2023-03-01T01:56:51;102160.16;;;2.77;55.23
10460;BME280;54412;51.206;6.888;2023-03-01T01:59:18;102159.28;;;2.73;55.85
10460;BME280;54412;51.206;6.888;2023-03-01T02:01:44;102155.97;;;3.06;54.74
10460;BME280;54412;51.206;6.888;2023-03-01T02:04:09;102162.00;;;2.99;55.04
10460;BME280;54412;51.206;6.888;2023-03-01T02:06:49;102155.00;;;2.87;55.07
10460;BME280;54412;51.206;6.888;2023-03-01T02:09:20;102155.03;;;2.92;54.96
10460;BME280;54412;51.206;6.888;2023-03-01T02:11:48;102158.56;;;3.00;55.12
10460;BME280;54412;51.206;6.888;2023-03-01T02:14:15;102155.00;;;2.87;55.39
10460;BME280;54412;51.206;6.888;2023-03-01T02:16:41;102154.28;;;3.12;54.66
10460;BME280;54412;51.206;6.888;2023-03-01T02:19:13;102153.34;;;3.00;54.79
10460;BME280;54412;51.206;6.888;2023-03-01T02:22:07;102161.97;;;2.90;55.16
10460;BME280;54412;51.206;6.888;2023-03-01T02:30:24;102159.19;;;2.63;55.70
10460;BME280;54412;51.206;6.888;2023-03-01T02:32:52;102161.97;;;2.90;55.19
10460;BME280;54412;51.206;6.888;2023-03-01T02:35:19;102165.25;;;2.59;55.89
10460;BME280;54412;51.206;6.888;2023-03-01T02:37:47;102162.88;;;2.99;54.80
10460;BME280;54412;51.206;6.888;2023-03-01T02:40:19;102166.38;;;3.00;55.06
10460;BME280;54412;51.206;6.888;2023-03-01T02:42:54;102158.56;;;3.03;54.44
10460;BME280;54412;51.206;6.888;2023-03-01T02:45:21;102162.84;;;2.92;55.00
10460;BME280;54412;51.206;6.888;2023-03-01T02:47:49;102155.97;;;3.06;54.28
10460;BME280;54412;51.206;6.888;2023-03-01T02:53:08;102147.28;;;3.13;54.39
10460;BME280;54412;51.206;6.888;2023-03-01T02:55:36;102160.25;;;2.93;54.94
10460;BME280;54412;51.206;6.888;2023-03-01T02:58:03;102147.28;;;3.05;54.33
10460;BME280;54412;51.206;6.888;2023-03-01T03:00:41;102140.34;;;3.07;54.25
10460;BME280;54412;51.206;6.888;2023-03-01T03:03:14;102146.31;;;2.85;54.59
10460;BME280;54412;51.206;6.888;2023-03-01T03:05:40;102138.47;;;2.81;54.74
10460;BME280;54412;51.206;6.888;2023-03-01T03:08:06;102147.16;;;2.80;54.54
10460;BME280;54412;51.206;6.888;2023-03-01T03:10:39;102142.81;;;2.82;54.72
10460;BME280;54412;51.206;6.888;2023-03-01T03:13:09;102149.84;;;2.96;54.64
10460;BME280;54412;51.206;6.888;2023-03-01T03:15:36;102142.06;;;3.04;54.51
10460;BME280;54412;51.206;6.888;2023-03-01T03:18:08;102141.94;;;2.78;54.25
10460;BME280;54412;51.206;6.888;2023-03-01T03:20:34;102137.66;;;2.92;54.34
10460;BME280;54412;51.206;6.888;2023-03-01T03:23:00;102137.56;;;2.79;54.78
10460;BME280;54412;51.206;6.888;2023-03-01T03:25:28;102123.69;;;2.80;55.03
10460;BME280;54412;51.206;6.888;2023-03-01T03:27:56;102122.72;;;2.60;55.52
10460;BME280;54412;51.206;6.888;2023-03-01T03:30:29;102123.72;;;2.84;54.46
10460;BME280;54412;51.206;6.888;2023-03-01T03:32:56;102130.53;;;2.63;55.27
10460;BME280;54412;51.206;6.888;2023-03-01T03:35:30;102136.63;;;2.62;55.12
10460;BME280;54412;51.206;6.888;2023-03-01T03:37:58;102121.81;;;2.59;55.27
10460;BME280;54412;51.206;6.888;2023-03-01T03:40:32;102124.34;;;2.44;55.46
10460;BME280;54412;51.206;6.888;2023-03-01T03:42:58;102129.63;;;2.56;55.00
10460;BME280;54412;51.206;6.888;2023-03-01T03:45:24;102126.22;;;2.65;54.84
10460;BME280;54412;51.206;6.888;2023-03-01T03:47:50;102117.25;;;2.24;55.62
10460;BME280;54412;51.206;6.888;2023-03-01T03:50:17;102126.97;;;2.50;55.49
10460;BME280;54412;51.206;6.888;2023-03-01T03:52:44;102116.47;;;2.35;55.31
10460;BME280;54412;51.206;6.888;2023-03-01T03:55:11;102113.13;;;2.53;54.84
10460;BME280;54412;51.206;6.888;2023-03-01T03:57:41;102116.72;;;2.73;54.44
10460;BME280;54412;51.206;6.888;2023-03-01T04:00:11;102112.22;;;2.48;55.34
10460;BME280;54412;51.206;6.888;2023-03-01T04:02:45;102110.44;;;2.42;55.36
10460;BME280;54412;51.206;6.888;2023-03-01T04:05:16;102110.47;;;2.45;55.21
10460;BME280;54412;51.206;6.888;2023-03-01T04:07:43;102100.97;;;2.52;55.06
10460;BME280;54412;51.206;6.888;2023-03-01T04:10:15;102098.38;;;2.56;54.50
10460;BME280;54412;51.206;6.888;2023-03-01T04:12:41;102095.66;;;2.40;55.33
10460;BME280;54412;51.206;6.888;2023-03-01T04:15:10;102096.59;;;2.49;55.11
10460;BME280;54412;51.206;6.888;2023-03-01T04:17:45;102086.34;;;2.76;54.34
10460;BME280;54412;51.206;6.888;2023-03-01T04:20:18;102092.16;;;2.35;55.24
10460;BME280;54412;51.206;6.888;2023-03-01T04:22:52;102089.66;;;2.50;54.95
10460;BME280;54412;51.206;6.888;2023-03-01T04:25:19;102094.94;;;2.60;54.49
10460;BME280;54412;51.206;6.888;2023-03-01T04:27:44;102087.13;;;2.59;54.92
10460;BME280;54412;51.206;6.888;2023-03-01T04:30:10;102088.84;;;2.61;54.79
10460;BME280;54412;51.206;6.888;2023-03-01T04:32:36;102090.63;;;2.67;54.25
10460;BME280;54412;51.206;6.888;2023-03-01T04:35:02;102093.94;;;2.40;54.67
10460;BME280;54412;51.206;6.888;2023-03-01T04:37:28;102086.19;;;2.49;55.10
10460;BME280;54412;51.206;6.888;2023-03-01T04:39:55;102085.50;;;2.86;54.30
10460;BME280;54412;51.206;6.888;2023-03-01T04:42:20;102086.34;;;2.75;53.99
10460;BME280;54412;51.206;6.888;2023-03-01T04:44:46;102086.34;;;2.75;53.84
10460;BME280;54412;51.206;6.888;2023-03-01T04:47:12;102090.56;;;2.59;54.37
10460;BME280;54412;51.206;6.888;2023-03-01T04:49:38;102085.31;;;2.50;54.65
10460;BME280;54412;51.206;6.888;2023-03-01T04:52:04;102079.25;;;2.48;54.94
10460;BME280;54412;51.206;6.888;2023-03-01T04:54:32;102080.94;;;2.42;54.67
10460;BME280;54412;51.206;6.888;2023-03-01T04:56:59;102078.38;;;2.52;54.91
10460;BME280;54412;51.206;6.888;2023-03-01T04:59:25;102074.94;;;2.56;54.38
10460;BME280;54412;51.206;6.888;2023-03-01T05:01:55;102081.75;;;2.35;55.26
10460;BME280;54412;51.206;6.888;2023-03-01T05:04:23;102085.34;;;2.52;54.61
10460;BME280;54412;51.206;6.888;2023-03-01T05:06:49;102074.94;;;2.55;54.33
10460;BME280;54412;51.206;6.888;2023-03-01T05:09:15;102073.16;;;2.52;54.54
10460;BME280;54412;51.206;6.888;2023-03-01T05:11:41;102061.97;;;2.68;54.33
10460;BME280;54412;51.206;6.888;2023-03-01T05:14:08;102076.59;;;2.44;55.10
10460;BME280;54412;51.206;6.888;2023-03-01T05:16:35;102068.78;;;2.45;54.43
10460;BME280;54412;51.206;6.888;2023-03-01T05:19:03;102073.94;;;2.35;55.27
10460;BME280;54412;51.206;6.888;2023-03-01T05:21:38;102084.47;;;2.53;54.97
10460;BME280;54412;51.206;6.888;2023-03-01T05:24:24;102073.16;;;2.54;54.50
10460;BME280;54412;51.206;6.888;2023-03-01T05:26:50;102071.22;;;2.17;55.46
10460;BME280;54412;51.206;6.888;2023-03-01T05:29:23;102077.53;;;2.58;54.66
10460;BME280;54412;51.206;6.888;2023-03-01T05:31:55;102076.50;;;2.29;54.44
10460;BME280;54412;51.206;6.888;2023-03-01T05:34:25;102067.78;;;2.24;55.15
10460;BME280;54412;51.206;6.888;2023-03-01T05:36:53;102074.03;;;2.50;54.73
10460;BME280;54412;51.206;6.888;2023-03-01T05:39:25;102067.13;;;2.58;54.05
10460;BME280;54412;51.206;6.888;2023-03-01T05:42:00;102066.22;;;2.48;54.04
10460;BME280;54412;51.206;6.888;2023-03-01T05:44:28;102069.63;;;2.37;54.53
10460;BME280;54412;51.206;6.888;2023-03-01T05:46:54;102073.16;;;2.46;53.93
10460;BME280;54412;51.206;6.888;2023-03-01T05:49:21;102063.63;;;2.48;54.31
10460;BME280;54412;51.206;6.888;2023-03-01T05:51:51;102060.03;;;2.33;54.72
10460;BME280;54412;51.206;6.888;2023-03-01T05:54:19;102064.41;;;2.38;54.58
10460;BME280;54412;51.206;6.888;2023-03-01T05:56:45;102058.28;;;2.29;54.82
10460;BME280;54412;51.206;6.888;2023-03-01T05:59:11;102056.53;;;2.29;54.93
10460;BME280;54412;51.206;6.888;2023-03-01T06:01:37;102054.06;;;2.49;54.72
10460;BME280;54412;51.206;6.888;2023-03-01T06:04:04;102066.13;;;2.36;54.41
10460;BME280;54412;51.206;6.888;2023-03-01T06:06:34;102066.97;;;2.32;54.91
10460;BME280;54412;51.206;6.888;2023-03-01T06:08:59;102064.47;;;2.50;54.29
10460;BME280;54412;51.206;6.888;2023-03-01T06:11:25;102067.91;;;2.43;54.68
10460;BME280;54412;51.206;6.888;2023-03-01T06:13:51;102070.41;;;2.25;54.94
10460;BME280;54412;51.206;6.888;2023-03-01T06:16:16;102062.56;;;2.21;55.23
10460;BME280;54412;51.206;6.888;2023-03-01T06:18:42;102060.84;;;2.24;55.05
10460;BME280;54412;51.206;6.888;2023-03-01T06:21:08;102063.47;;;2.29;55.09
10460;BME280;54412;51.206;6.888;2023-03-01T06:23:34;102071.28;;;2.27;54.69
10460;BME280;54412;51.206;6.888;2023-03-01T06:26:05;102063.38;;;2.12;55.16
10460;BME280;54412;51.206;6.888;2023-03-01T06:28:31;102067.84;;;2.33;55.36
10460;BME280;54412;51.206;6.888;2023-03-01T06:30:56;102058.56;;;2.77;54.32
10460;BME280;54412;51.206;6.888;2023-03-01T06:33:22;102056.88;;;2.92;53.62
10460;BME280;54412;51.206;6.888;2023-03-01T06:35:51;102051.75;;;3.21;53.37
10460;BME280;54412;51.206;6.888;2023-03-01T06:38:16;102059.34;;;2.61;53.68
10460;BME280;54412;51.206;6.888;2023-03-01T06:40:45;102060.28;;;2.73;53.50
10460;BME280;54412;51.206;6.888;2023-03-01T06:43:10;102063.78;;;2.83;53.30
10460;BME280;54412;51.206;6.888;2023-03-01T06:45:37;102052.53;;;2.94;53.58
10460;BME280;54412;51.206;6.888;2023-03-01T06:48:07;102059.50;;;3.00;53.55
10460;BME280;54412;51.206;6.888;2023-03-01T06:50:34;102052.56;;;3.08;53.58
10460;BME280;54412;51.206;6.888;2023-03-01T06:53:00;102055.19;;;3.17;52.92
10460;BME280;54412;51.206;6.888;2023-03-01T06:55:26;102045.56;;;2.93;52.80
10460;BME280;54412;51.206;6.888;2023-03-01T06:58:01;102057.78;;;3.05;52.10
10460;BME280;54412;51.206;6.888;2023-03-01T07:00:28;102059.47;;;2.94;52.63
10460;BME280;54412;51.206;6.888;2023-03-01T07:02:54;102056.75;;;2.68;53.45
10460;BME280;54412;51.206;6.888;2023-03-01T07:05:20;102054.19;;;2.77;53.11
10460;BME280;54412;51.206;6.888;2023-03-01T07:07:46;102046.38;;;2.77;52.87
10460;BME280;54412;51.206;6.888;2023-03-01T07:10:12;102044.66;;;2.76;53.27
10460;BME280;54412;51.206;6.888;2023-03-01T07:12:38;102042.88;;;2.69;53.41
10460;BME280;54412;51.206;6.888;2023-03-01T07:15:04;102042.88;;;2.75;52.98
10460;BME280;54412;51.206;6.888;2023-03-01T07:17:30;102038.59;;;2.83;53.14
10460;BME280;54412;51.206;6.888;2023-03-01T07:19:56;102042.09;;;2.87;52.44
10460;BME280;54412;51.206;6.888;2023-03-01T07:22:22;102036.91;;;2.93;52.75
10460;BME280;54412;51.206;6.888;2023-03-01T07:24:48;102044.72;;;2.99;52.63
10460;BME280;54412;51.206;6.888;2023-03-01T07:27:13;102037.78;;;2.95;52.83
10460;BME280;54412;51.206;6.888;2023-03-01T07:29:39;102036.00;;;2.88;53.06
10460;BME280;54412;51.206;6.888;2023-03-01T07:32:06;102030.00;;;3.10;52.52
10460;BME280;54412;51.206;6.888;2023-03-01T07:34:31;102038.63;;;2.92;52.77
10460;BME280;54412;51.206;6.888;2023-03-01T07:36:57;102035.28;;;3.33;51.84
10460;BME280;54412;51.206;6.888;2023-03-01T07:39:24;102036.13;;;3.39;51.73
10460;BME280;54412;51.206;6.888;2023-03-01T07:41:51;102040.47;;;3.34;51.84
10460;BME280;54412;51.206;6.888;2023-03-01T07:44:16;102041.38;;;3.45;51.87
10460;BME280;54412;51.206;6.888;2023-03-01T07:46:43;102035.28;;;3.67;51.19
10460;BME280;54412;51.206;6.888;2023-03-01T07:49:09;102038.75;;;3.71;50.51
10460;BME280;54412;51.206;6.888;2023-03-01T07:51:35;102038.78;;;3.78;50.81
10460;BME280;54412;51.206;6.888;2023-03-01T07:54:01;102043.09;;;4.11;50.23
10460;BME280;54412;51.206;6.888;2023-03-01T07:56:26;102041.38;;;3.98;50.49
10460;BME280;54412;51.206;6.888;2023-03-01T07:58:52;102048.28;;;4.44;49.14
10460;BME280;54412;51.206;6.888;2023-03-01T08:01:20;102042.16;;;4.51;49.17
10460;BME280;54412;51.206;6.888;2023-03-01T08:03:47;102049.13;;;4.57;49.22
10460;BME280;54412;51.206;6.888;2023-03-01T08:06:15;102048.06;;;4.98;48.29
10460;BME280;54412;51.206;6.888;2023-03-01T08:08:41;102047.13;;;5.16;46.83
10460;BME280;54412;51.206;6.888;2023-03-01T08:11:10;102043.34;;;5.58;46.37
10460;BME280;54412;51.206;6.888;2023-03-01T08:13:36;102039.09;;;5.43;47.11
10460;BME280;54412;51.206;6.888;2023-03-01T08:16:11;102037.91;;;5.89;46.44
10460;BME280;54412;51.206;6.888;2023-03-01T08:18:37;102047.38;;;6.01;45.69
10460;BME280;54412;51.206;6.888;2023-03-01T08:21:09;102042.06;;;6.08;45.79
10460;BME280;54412;51.206;6.888;2023-03-01T08:23:35;102039.34;;;6.19;45.14
10460;BME280;54412;51.206;6.888;2023-03-01T08:26:17;102038.28;;;6.40;44.89
10460;BME280;54412;51.206;6.888;2023-03-01T08:28:44;102037.97;;;6.67;43.50
10460;BME280;54412;51.206;6.888;2023-03-01T08:31:28;102038.97;;;6.58;43.14
10460;BME280;54412;51.206;6.888;2023-03-01T08:33:58;102043.88;;;6.84;42.91
10460;BME280;54412;51.206;6.888;2023-03-01T08:36:35;102039.66;;;6.72;42.77
10460;BME280;54412;51.206;6.888;2023-03-01T08:39:01;102040.28;;;6.92;42.80
10460;BME280;54412;51.206;6.888;2023-03-01T08:41:27;102041.72;;;7.14;42.38
10460;BME280;54412;51.206;6.888;2023-03-01T08:43:53;102044.09;;;7.32;42.16
10460;BME280;54412;51.206;6.888;2023-03-01T08:46:25;102030.53;;;7.61;41.76
10460;BME280;54412;51.206;6.888;2023-03-01T08:48:51;102033.97;;;7.66;42.69
10460;BME280;54412;51.206;6.888;2023-03-01T08:51:19;102034.53;;;8.35;42.88
10460;BME280;54412;51.206;6.888;2023-03-01T08:53:46;102030.16;;;8.35;41.90
10460;BME280;54412;51.206;6.888;2023-03-01T08:56:13;102029.38;;;8.75;41.76
10460;BME280;54412;51.206;6.888;2023-03-01T08:58:39;102022.03;;;9.30;40.76
10460;BME280;54412;51.206;6.888;2023-03-01T09:01:14;102024.56;;;9.34;39.92
10460;BME280;54412;51.206;6.888;2023-03-01T09:03:41;102024.59;;;9.33;39.50
10460;BME280;54412;51.206;6.888;2023-03-01T09:06:07;102029.94;;;9.30;38.98
10460;BME280;54412;51.206;6.888;2023-03-01T09:08:45;102021.13;;;9.31;38.08
10460;BME280;54412;51.206;6.888;2023-03-01T09:11:15;102022.00;;;8.92;38.90
10460;BME280;54412;51.206;6.888;2023-03-01T09:13:41;102033.91;;;9.09;38.76
10460;BME280;54412;51.206;6.888;2023-03-01T09:16:08;102023.34;;;9.49;38.12
10460;BME280;54412;51.206;6.888;2023-03-01T09:18:34;102029.28;;;9.57;38.02
10460;BME280;54412;51.206;6.888;2023-03-01T09:21:09;102021.00;;;10.07;37.42
10460;BME280;54412;51.206;6.888;2023-03-01T09:23:46;102013.50;;;10.26;37.22
10460;BME280;54412;51.206;6.888;2023-03-01T09:26:19;102014.34;;;10.59;42.58
10460;BME280;54412;51.206;6.888;2023-03-01T09:28:47;102020.75;;;10.50;41.71
10460;BME280;54412;51.206;6.888;2023-03-01T09:31:15;102017.41;;;10.74;37.73
10460;BME280;54412;51.206;6.888;2023-03-01T09:33:42;102004.84;;;10.21;38.69
10460;BME280;54412;51.206;6.888;2023-03-01T09:36:13;101995.72;;;10.65;39.64
10460;BME280;54412;51.206;6.888;2023-03-01T09:38:39;101983.31;;;10.96;37.36
10460;BME280;54412;51.206;6.888;2023-03-01T09:46:58;101988.84;;;11.73;36.99
10460;BME280;54412;51.206;6.888;2023-03-01T09:49:29;101989.09;;;11.64;36.32
10460;BME280;54412;51.206;6.888;2023-03-01T09:52:15;101985.25;;;11.46;34.55
10460;BME280;54412;51.206;6.888;2023-03-01T09:54:49;101988.63;;;11.23;33.64
10460;BME280;54412;51.206;6.888;2023-03-01T09:57:55;101984.56;;;10.84;33.98
10460;BME280;54412;51.206;6.888;2023-03-01T10:00:41;101976.19;;;11.27;33.49
10460;BME280;54412;51.206;6.888;2023-03-01T10:04:22;101983.72;;;11.39;33.56
10460;BME280;54412;51.206;6.888;2023-03-01T10:07:17;101977.69;;;11.08;32.86
10460;BME280;54412;51.206;6.888;2023-03-01T10:09:47;101971.59;;;10.77;33.16
10460;BME280;54412;51.206;6.888;2023-03-01T10:12:37;101977.09;;;10.69;34.07
10460;BME280;54412;51.206;6.888;2023-03-01T10:15:34;101965.97;;;11.16;33.82
10460;BME280;54412;51.206;6.888;2023-03-01T10:18:25;101984.50;;;11.42;33.06
10460;BME280;54412;51.206;6.888;2023-03-01T10:21:14;101967.63;;;11.20;33.25
10460;BME280;54412;51.206;6.888;2023-03-01T10:23:40;101964.94;;;10.93;34.14
10460;BME280;54412;51.206;6.888;2023-03-01T10:26:44;101957.91;;;11.21;33.27
10460;BME280;54412;51.206;6.888;2023-03-01T10:29:13;101957.78;;;11.51;33.02
10460;BME280;54412;51.206;6.888;2023-03-01T10:31:47;101949.78;;;12.05;32.59
10460;BME280;54412;51.206;6.888;2023-03-01T10:34:22;101952.84;;;12.18;32.63
10460;BME280;54412;51.206;6.888;2023-03-01T10:36:56;101947.72;;;11.36;31.73
10460;BME280;54412;51.206;6.888;2023-03-01T10:39:26;101941.56;;;11.62;31.69
10460;BME280;54412;51.206;6.888;2023-03-01T10:44:52;101948.88;;;11.82;32.10
10460;BME280;54412;51.206;6.888;2023-03-01T10:47:21;101949.88;;;10.96;32.42
10460;BME280;54412;51.206;6.888;2023-03-01T10:52:37;101929.91;;;12.18;33.17
10460;BME280;54412;51.206;6.888;2023-03-01T10:58:20;101919.34;;;12.41;32.55
10460;BME280;54412;51.206;6.888;2023-03-01T11:00:59;101916.94;;;12.82;31.68
10460;BME280;54412;51.206;6.888;2023-03-01T11:03:33;101927.59;;;13.03;31.26
10460;BME280;54412;51.206;6.888;2023-03-01T11:06:20;101920.03;;;12.93;30.71
10460;BME280;54412;51.206;6.888;2023-03-01T11:08:49;101919.47;;;12.38;30.69
10460;BME280;54412;51.206;6.888;2023-03-01T11:11:32;101913.03;;;12.45;31.74
10460;BME280;54412;51.206;6.888;2023-03-01T11:14:20;101900.41;;;12.53;31.56
10460;BME280;54412;51.206;6.888;2023-03-01T11:19:18;101889.63;;;13.24;30.74
10460;BME280;54412;51.206;6.888;2023-03-01T11:21:55;101891.13;;;12.87;30.98
10460;BME280;54412;51.206;6.888;2023-03-01T11:24:47;101889.50;;;12.84;31.02
10460;BME280;54412;51.206;6.888;2023-03-01T11:27:28;101877.75;;;13.13;31.26
10460;BME280;54412;51.206;6.888;2023-03-01T11:30:05;101872.34;;;13.78;30.48
10460;BME280;54412;51.206;6.888;2023-03-01T11:32:53;101868.06;;;13.94;30.72
10460;BME280;54412;51.206;6.888;2023-03-01T11:35:26;101857.63;;;14.09;29.52
10460;BME280;54412;51.206;6.888;2023-03-01T11:40:47;101853.75;;;14.36;30.03
10460;BME280;54412;51.206;6.888;2023-03-01T11:43:37;101862.03;;;14.10;28.82
10460;BME280;54412;51.206;6.888;2023-03-01T12:01:14;101861.91;;;12.90;30.37
10460;BME280;54412;51.206;6.888;2023-03-01T12:04:30;101860.56;;;13.43;30.37
10460;BME280;54412;51.206;6.888;2023-03-01T12:10:09;101838.72;;;14.17;30.22
10460;BME280;54412;51.206;6.888;2023-03-01T12:16:20;101826.81;;;14.25;29.94
10460;BME280;54412;51.206;6.888;2023-03-01T12:19:29;101830.50;;;14.60;29.62
10460;BME280;54412;51.206;6.888;2023-03-01T12:22:32;101836.91;;;13.99;29.59
10460;BME280;54412;51.206;6.888;2023-03-01T12:33:51;101811.63;;;14.29;29.08
10460;BME280;54412;51.206;6.888;2023-03-01T12:39:51;101812.06;;;14.57;29.20
10460;BME280;54412;51.206;6.888;2023-03-01T12:51:27;101783.78;;;14.56;28.26
10460;BME280;54412;51.206;6.888;2023-03-01T12:53:57;101784.75;;;14.36;28.25
10460;BME280;54412;51.206;6.888;2023-03-01T12:56:32;101786.59;;;14.53;28.67
10460;BME280;54412;51.206;6.888;2023-03-01T13:02:03;101780.41;;;14.52;28.17
10460;BME280;54412;51.206;6.888;2023-03-01T13:04:53;101771.03;;;14.81;27.70
10460;BME280;54412;51.206;6.888;2023-03-01T13:17:50;101763.34;;;14.58;29.47
10460;BME280;54412;51.206;6.888;2023-03-01T13:20:20;101756.50;;;14.35;29.22
10460;BME280;54412;51.206;6.888;2023-03-01T13:22:48;101770.28;;;14.23;29.43
10460;BME280;54412;51.206;6.888;2023-03-01T13:25:26;101756.06;;;14.44;29.31
10460;BME280;54412;51.206;6.888;2023-03-01T13:33:53;101756.75;;;13.92;29.41
10460;BME280;54412;51.206;6.888;2023-03-01T13:39:31;101741.78;;;13.71;30.42
10460;BME280;54412;51.206;6.888;2023-03-01T13:42:32;101761.47;;;13.65;30.79
10460;BME280;54412;51.206;6.888;2023-03-01T13:44:59;101747.16;;;14.08;30.06
10460;BME280;54412;51.206;6.888;2023-03-01T13:47:27;101743.69;;;14.06;29.59
10460;BME280;54412;51.206;6.888;2023-03-01T13:50:03;101743.47;;;13.53;30.44
10460;BME280;54412;51.206;6.888;2023-03-01T13:52:39;101749.50;;;14.14;29.56
10460;BME280;54412;51.206;6.888;2023-03-01T13:57:44;101738.06;;;13.75;29.97
10460;BME280;54412;51.206;6.888;2023-03-01T14:00:47;101737.78;;;14.00;29.87
10460;BME280;54412;51.206;6.888;2023-03-01T14:03:19;101729.41;;;13.72;30.49
10460;BME280;54412;51.206;6.888;2023-03-01T14:06:08;101725.25;;;14.03;30.78
10460;BME280;54412;51.206;6.888;2023-03-01T14:08:36;101729.56;;;14.43;30.76
10460;BME280;54412;51.206;6.888;2023-03-01T14:14:34;101726.41;;;13.98;30.70
10460;BME280;54412;51.206;6.888;2023-03-01T14:17:49;101726.81;;;13.70;30.25
10460;BME280;54412;51.206;6.888;2023-03-01T14:20:32;101727.91;;;13.85;30.14
10460;BME280;54412;51.206;6.888;2023-03-01T14:23:10;101723.16;;;13.54;30.87
10460;BME280;54412;51.206;6.888;2023-03-01T14:25:37;101717.34;;;13.64;30.75
10460;BME280;54412;51.206;6.888;2023-03-01T14:28:19;101715.47;;;13.48;30.95
10460;BME280;54412;51.206;6.888;2023-03-01T14:30:48;101709.19;;;13.30;30.84
10460;BME280;54412;51.206;6.888;2023-03-01T14:33:33;101701.53;;;13.63;30.63
10460;BME280;54412;51.206;6.888;2023-03-01T14:36:14;101694.34;;;13.46;30.38
10460;BME280;54412;51.206;6.888;2023-03-01T14:38:45;101684.63;;;12.65;30.62
10460;BME280;54412;51.206;6.888;2023-03-01T14:41:22;101695.16;;;12.25;31.70
10460;BME280;54412;51.206;6.888;2023-03-01T14:43:57;101689.19;;;12.61;31.61
10460;BME280;54412;51.206;6.888;2023-03-01T14:46:40;101684.25;;;12.74;31.77
10460;BME280;54412;51.206;6.888;2023-03-01T14:49:15;101678.16;;;12.72;31.93
10460;BME280;54412;51.206;6.888;2023-03-01T14:51:52;101673.47;;;12.79;31.67
10460;BME280;54412;51.206;6.888;2023-03-01T14:54:25;101675.53;;;12.30;31.66
10460;BME280;54412;51.206;6.888;2023-03-01T14:56:58;101660.94;;;12.20;31.68
10460;BME280;54412;51.206;6.888;2023-03-01T14:59:25;101665.78;;;12.09;31.57
10460;BME280;54412;51.206;6.888;2023-03-01T15:01:56;101675.31;;;11.92;32.15
10460;BME280;54412;51.206;6.888;2023-03-01T15:04:24;101667.88;;;11.55;32.13